»·PEaware :: N20AC O60-KRDD

N20AC :: O60-KRDD

FLIGHT INFORMATION

Flight Status: Arrived
Operator: Privately registered:
United States
More flights under this callsign
Pilot: Jan K. (187)
Aircraft: BEECH AIRCRAFT BONANZA
(BE35)
More flights by this aircraft type
Origin: O60 Cloverdale Mun
United States
Destination: KRDD Redding Mun
United States
More flights between these airports :: More routes between these airports
Route: ENI V199 RBL
File this flight plan on PilotEdge
Remarks:
Altitude:
(Current/Filed)
9,000ft
Speed:
(Current/Filed)
160kts
Departed: 04-Jan-19 01:52 PM
Arrived: 04-Jan-19 02:55 PM
Distance/Time
Traveled:
109nm/1:02
Distance/Time
To Go:
Arrived

Flight Plot

Page will automatically refresh every two minutes.

Flight plan parsing failed; only flown route is shown


Map Options




Map Legend


Flown Route
Filed Route
Departure Airport
Arrival Airport
Navaid (VOR, NDB)
Fix

Horizontal Profiles

Position Reports

Time Latitude Longitude Heading Altitude Ground
Speed
04-Jan-19 13:34 38.775047 -122.993208 238 275ft 0kts
04-Jan-19 13:35 38.775045 -122.993211 238 275ft 0kts
04-Jan-19 13:36 38.775044 -122.993213 238 275ft 0kts
04-Jan-19 13:37 38.775043 -122.993216 238 275ft 0kts
04-Jan-19 13:38 38.775042 -122.993218 238 275ft 0kts
04-Jan-19 13:39 38.774709 -122.993099 154 275ft 4kts
04-Jan-19 13:40 38.774538 -122.992806 70 275ft 0kts
04-Jan-19 13:41 38.774538 -122.992803 70 275ft 0kts
04-Jan-19 13:42 38.774757 -122.992517 128 275ft 0kts
04-Jan-19 13:43 38.774756 -122.992516 128 275ft 0kts
04-Jan-19 13:44 38.774756 -122.992516 128 275ft 0kts
04-Jan-19 13:45 38.774755 -122.992514 128 275ft 0kts
04-Jan-19 13:46 38.774789 -122.992286 13 275ft 4kts
04-Jan-19 13:47 38.778012 -122.994364 332 275ft 14kts
04-Jan-19 13:48 38.779294 -122.995382 37 275ft 0kts
04-Jan-19 13:49 38.779298 -122.995379 37 275ft 0kts
04-Jan-19 13:50 38.779413 -122.995237 54 275ft 3kts
04-Jan-19 13:51 38.773426 -122.990631 153 395ft 86kts
04-Jan-19 13:52 38.749612 -122.975387 153 1864ft 105kts
04-Jan-19 13:53 38.730313 -122.953181 57 3379ft 100kts
04-Jan-19 13:54 38.754069 -122.955344 339 4713ft 101kts
04-Jan-19 13:55 38.777858 -122.974388 328 5944ft 100kts
04-Jan-19 13:56 38.799912 -122.996591 322 7066ft 100kts
04-Jan-19 13:57 38.821806 -123.019843 324 7942ft 114kts
04-Jan-19 13:58 38.851643 -123.051383 321 7986ft 154kts
04-Jan-19 13:59 38.885030 -123.088251 321 7985ft 161kts
04-Jan-19 14:00 38.919503 -123.126266 321 7982ft 163kts
04-Jan-19 14:01 38.954145 -123.164269 320 7980ft 165kts
04-Jan-19 14:02 38.988997 -123.202921 322 7969ft 164kts
04-Jan-19 14:03 39.001647 -123.254651 242 7969ft 181kts
04-Jan-19 14:04 38.957436 -123.250949 141 7968ft 190kts
04-Jan-19 14:05 38.916055 -123.210193 140 7969ft 189kts
04-Jan-19 14:06 38.876462 -123.166201 107 7979ft 183kts
04-Jan-19 14:07 38.900100 -123.118147 11 7977ft 161kts
04-Jan-19 14:08 38.936139 -123.149937 320 7970ft 164kts
04-Jan-19 14:09 38.969470 -123.190029 318 7976ft 164kts
04-Jan-19 14:10 38.984506 -123.238629 239 7972ft 180kts
04-Jan-19 14:11 38.991853 -123.288345 317 7969ft 163kts
04-Jan-19 14:12 39.026000 -123.316451 30 8438ft 147kts
04-Jan-19 14:13 39.052534 -123.276574 41 9004ft 150kts
04-Jan-19 14:14 39.085760 -123.239493 29 9035ft 163kts
04-Jan-19 14:15 39.123610 -123.205434 32 9035ft 167kts
04-Jan-19 14:16 39.160924 -123.169194 33 9034ft 169kts
04-Jan-19 14:17 39.198407 -123.132480 33 9021ft 170kts
04-Jan-19 14:18 39.236110 -123.095562 33 9007ft 168kts
04-Jan-19 14:19 39.273314 -123.058872 33 9009ft 168kts
04-Jan-19 14:20 39.310518 -123.022480 33 9006ft 168kts
04-Jan-19 14:21 39.347654 -122.986013 33 9015ft 167kts
04-Jan-19 14:22 39.384877 -122.949349 33 9010ft 168kts
04-Jan-19 14:23 39.422051 -122.912667 33 9014ft 168kts
04-Jan-19 14:24 39.459314 -122.875903 33 9019ft 168kts
04-Jan-19 14:25 39.496582 -122.839046 34 9026ft 168kts
04-Jan-19 14:26 39.533653 -122.802316 33 9038ft 167kts
04-Jan-19 14:27 39.570819 -122.765507 34 9047ft 168kts
04-Jan-19 14:28 39.608088 -122.728486 33 9042ft 168kts
04-Jan-19 14:29 39.645252 -122.691535 34 9053ft 169kts
04-Jan-19 14:30 39.682795 -122.654145 34 9056ft 170kts
04-Jan-19 14:31 39.720295 -122.616700 34 9060ft 168kts
04-Jan-19 14:32 39.757407 -122.579647 34 9062ft 168kts
04-Jan-19 14:33 39.794668 -122.542418 34 9063ft 168kts
04-Jan-19 14:34 39.831718 -122.505320 34 9068ft 167kts
04-Jan-19 14:35 39.868834 -122.468084 34 9071ft 169kts
04-Jan-19 14:36 39.906189 -122.430560 34 9058ft 171kts
04-Jan-19 14:37 39.943789 -122.392748 34 8734ft 172kts
04-Jan-19 14:38 39.981491 -122.354756 35 7717ft 171kts
04-Jan-19 14:39 40.016039 -122.319894 35 6397ft 151kts
04-Jan-19 14:40 40.048546 -122.287114 36 5141ft 148kts
04-Jan-19 14:41 40.084002 -122.251356 36 5019ft 164kts
04-Jan-19 14:42 40.123803 -122.244683 346 4928ft 148kts
04-Jan-19 14:43 40.163958 -122.256333 347 4471ft 148kts
04-Jan-19 14:44 40.204270 -122.268716 347 4012ft 149kts
04-Jan-19 14:45 40.244305 -122.281068 347 3544ft 148kts
04-Jan-19 14:46 40.283430 -122.293150 347 3068ft 146kts
04-Jan-19 14:47 40.323991 -122.295143 359 2912ft 142kts
04-Jan-19 14:48 40.361271 -122.295142 0 2712ft 130kts
04-Jan-19 14:49 40.391934 -122.295109 0 2668ft 87kts
04-Jan-19 14:50 40.416803 -122.295060 0 2169ft 85kts
04-Jan-19 14:51 40.440885 -122.295016 0 1701ft 88kts
04-Jan-19 14:52 40.464524 -122.294966 1 1241ft 83kts
04-Jan-19 14:53 40.487819 -122.294942 0 806ft 83kts
04-Jan-19 14:54 40.506551 -122.294906 1 506ft 20kts
04-Jan-19 14:55 40.508142 -122.295581 300 506ft 0kts
04-Jan-19 14:56 40.508592 -122.296824 256 506ft 6kts
04-Jan-19 14:57 40.508411 -122.298646 359 506ft 6kts
04-Jan-19 14:58 40.509761 -122.298442 87 506ft 4kts
04-Jan-19 14:59 40.509979 -122.298261 354 506ft 0kts
04-Jan-19 15:00 40.509980 -122.298261 354 506ft 0kts
04-Jan-19 15:01 40.509982 -122.298261 354 506ft 0kts
04-Jan-19 15:02 40.509984 -122.298261 354 506ft 0kts

Navigation Log

Ident Type
Flight plan parsing failed, navigation log unavailable